createdAt,value
2018-12-18T11:02:29.760Z,218.27
2018-12-18T11:04:57.681Z,389.70
2018-12-18T11:07:25.612Z,1013.10
2018-12-18T11:09:53.508Z,1730.57
2018-12-18T11:12:27.141Z,1959.90
2018-12-18T11:14:55.067Z,1999.90
2018-12-18T11:17:22.964Z,1999.90
2018-12-18T11:19:50.900Z,1999.90
2018-12-18T11:22:18.795Z,1999.90
2018-12-18T11:24:46.720Z,1999.90
2018-12-18T11:27:14.609Z,1999.90
2018-12-18T11:29:42.523Z,1999.90
2018-12-18T11:32:10.443Z,1999.90
2018-12-18T11:34:38.374Z,1999.90
2018-12-18T11:37:06.368Z,1999.90
2018-12-18T11:39:34.294Z,1999.90
2018-12-18T11:42:02.191Z,1999.90
2018-12-18T11:44:30.109Z,1999.90
2018-12-18T11:46:58.004Z,1999.90
2018-12-18T11:49:25.867Z,1999.90
2018-12-18T11:51:53.759Z,1999.90
2018-12-18T11:54:21.667Z,1999.90
2018-12-18T11:56:49.591Z,1999.90
2018-12-18T11:59:17.520Z,1999.90
2018-12-18T12:01:45.468Z,1999.90
2018-12-18T12:04:13.391Z,1999.90
2018-12-18T12:06:41.240Z,1999.90
2018-12-18T12:09:09.223Z,1999.90
2018-12-18T12:11:37.136Z,1999.90
2018-12-18T12:14:05.036Z,1999.90
2018-12-18T12:16:32.931Z,1999.90
2018-12-18T12:19:00.827Z,1999.90
2018-12-18T12:21:28.770Z,1999.90
2018-12-18T12:23:56.660Z,1999.90
2018-12-18T12:26:30.215Z,1999.90
2018-12-18T12:28:58.141Z,1999.90
2018-12-18T12:31:26.001Z,1999.90
2018-12-18T12:33:54.041Z,1999.90
2018-12-18T12:36:21.959Z,1999.90
2018-12-18T12:38:49.799Z,1999.90
2018-12-18T12:41:17.721Z,1999.90
2018-12-18T12:43:45.620Z,1999.90
2018-12-18T12:46:13.533Z,1999.90
2018-12-18T12:48:47.088Z,1999.90
2018-12-18T12:51:14.992Z,1999.90
2018-12-18T12:53:42.944Z,1999.90
2018-12-18T12:56:10.839Z,1999.90
2018-12-18T12:58:38.748Z,1999.90
2018-12-18T13:01:06.672Z,1999.90
2018-12-18T13:03:34.569Z,1999.90
2018-12-18T13:06:02.516Z,1999.90
2018-12-18T13:08:30.424Z,1999.90
2018-12-18T13:10:58.284Z,1999.90
2018-12-18T13:13:26.172Z,1999.90
2018-12-18T13:15:54.092Z,1999.90
2018-12-18T13:18:22.003Z,1999.90
2018-12-18T13:20:49.897Z,1999.90
2018-12-18T13:23:17.840Z,1999.90
2018-12-18T13:25:45.749Z,1999.90
2018-12-18T13:28:13.635Z,1999.90
2018-12-18T13:30:41.488Z,1999.90
2018-12-18T13:33:09.408Z,1999.90
2018-12-18T13:35:37.348Z,1999.90
2018-12-18T13:38:05.292Z,1999.90
2018-12-18T13:40:33.205Z,1999.90
2018-12-18T13:43:01.091Z,1999.90
2018-12-18T13:45:29.011Z,1999.90
2018-12-18T13:47:56.888Z,1999.90
2018-12-18T13:50:24.801Z,1999.90
2018-12-18T13:52:52.725Z,1999.90
2018-12-18T13:55:20.596Z,1999.90
2018-12-18T13:57:48.528Z,1999.90
2018-12-18T14:00:16.421Z,1999.90
2018-12-18T14:02:44.319Z,1999.90
2018-12-18T14:05:12.220Z,1999.90
2018-12-18T14:07:40.151Z,1999.90
2018-12-18T14:10:08.079Z,1999.90
2018-12-18T14:12:35.991Z,1999.90
2018-12-18T14:15:03.917Z,1999.90
2018-12-18T14:17:31.836Z,1999.90
2018-12-18T14:19:59.760Z,1999.90
2018-12-18T14:22:27.736Z,1999.90
2018-12-18T14:24:55.631Z,1999.90
2018-12-18T14:27:23.551Z,1999.90
2018-12-18T14:29:51.539Z,1999.90
2018-12-18T14:32:19.469Z,1999.90
2018-12-18T14:34:47.356Z,1999.90
2018-12-18T14:37:15.224Z,1999.90
2018-12-18T14:39:43.217Z,1999.90
2018-12-18T14:42:11.116Z,1999.90
2018-12-18T14:44:39.016Z,1999.90
2018-12-18T14:47:06.933Z,1999.90
2018-12-18T14:49:34.858Z,1999.90
2018-12-18T14:52:02.776Z,1999.90
2018-12-18T14:54:30.737Z,1999.90
2018-12-18T14:56:58.652Z,1999.90
2018-12-18T14:59:26.624Z,1999.90
2018-12-18T15:01:54.534Z,1999.90
2018-12-18T15:04:22.427Z,1999.90
2018-12-18T15:06:50.324Z,1999.90
2018-12-18T15:09:18.261Z,1999.90
2018-12-18T15:11:46.159Z,1999.90
2018-12-18T15:14:14.044Z,1905.13
2018-12-18T15:16:41.951Z,1719.80
2018-12-18T15:19:09.855Z,1683.47
2018-12-18T15:21:37.794Z,1498.87
2018-12-18T15:24:05.717Z,1475.30
2018-12-18T15:26:33.744Z,1293.37
2018-12-18T15:29:01.728Z,1522.53
2018-12-18T15:31:29.620Z,1370.53
2018-12-18T15:33:57.524Z,1075.70
2018-12-18T15:36:25.444Z,194.27
2018-12-18T15:38:53.360Z,355.33
2018-12-18T15:41:21.269Z,349.17
2018-12-18T15:43:49.197Z,246.33
2018-12-18T15:46:17.103Z,189.77
2018-12-18T15:48:45.035Z,203.73
2018-12-18T15:51:13.025Z,299.37
2018-12-18T15:53:40.918Z,149.67
2018-12-18T15:56:08.847Z,174.00
2018-12-18T15:58:36.816Z,167.30
2018-12-18T16:01:04.744Z,177.47
2018-12-18T16:03:32.664Z,157.37
2018-12-18T16:06:00.581Z,215.53
2018-12-18T16:08:28.500Z,243.20
2018-12-18T16:10:56.854Z,203.87
2018-12-18T16:13:24.747Z,265.13
2018-12-18T16:15:52.665Z,241.40
2018-12-18T16:18:20.593Z,248.73
2018-12-18T16:20:48.478Z,181.77
2018-12-18T16:23:16.384Z,336.70
2018-12-18T16:25:44.309Z,306.73
2018-12-18T16:28:12.213Z,248.00
2018-12-18T16:30:40.194Z,273.13
2018-12-18T16:33:08.112Z,304.97
2018-12-18T16:35:36.120Z,411.50
2018-12-18T16:38:04.128Z,394.13
2018-12-18T16:40:32.028Z,342.80
2018-12-18T16:42:59.932Z,362.00
2018-12-18T16:45:27.860Z,225.37
2018-12-18T16:47:55.759Z,237.43
2018-12-18T16:50:26.614Z,159.83
2018-12-18T16:52:53.625Z,134.50
2018-12-18T16:55:21.548Z,142.03
2018-12-18T16:57:49.468Z,157.73
2018-12-18T17:00:17.368Z,272.57
2018-12-18T17:02:45.341Z,270.80
2018-12-18T17:05:13.256Z,203.93
2018-12-18T17:07:41.156Z,155.70
2018-12-18T17:10:09.083Z,299.90
2018-12-18T17:12:38.936Z,189.67
2018-12-18T17:15:06.836Z,335.60
2018-12-18T17:17:34.725Z,235.80
2018-12-18T17:20:02.632Z,451.37
2018-12-18T17:22:30.584Z,442.63
2018-12-18T17:24:58.512Z,682.63
2018-12-18T17:27:26.418Z,501.57
2018-12-18T17:29:54.396Z,675.97
2018-12-18T17:32:22.326Z,675.13
2018-12-18T17:34:50.220Z,629.37
2018-12-18T17:37:18.132Z,777.70
2018-12-18T17:39:46.060Z,505.60
2018-12-18T17:42:13.951Z,461.97
2018-12-18T17:44:41.890Z,527.73
2018-12-18T17:47:09.804Z,390.43
2018-12-18T17:49:37.783Z,415.60
